Terminal Aerodrome Forecast
Issued by NWS Charleston, WV

Current Version | Previous Version | Graphics & Text | Print | Product List | Glossary On
Versions: 1 2 3 4 5 6 7 8 9 10 11 12 13 14 15 16 17 18 19 20 21 22 23 24 25 26 27 28 29
000
FTUS41 KRLX 031749
TAFEKN
TAF
KEKN 031749Z 0318/0418 13005KT P6SM VCSH OVC040
     FM032000 09004KT 5SM SHRA BKN035 OVC060
      TEMPO 0321/0323 2SM TSRA OVC015CB
     FM040300 VRB03KT 3SM SHRA BR OVC020
     FM040800 VRB03KT 2SM BR BKN008
     FM041500 VRB03KT P6SM BKN015
     FM041700 26004KT P6SM BKN020=

USA.gov is the U.S. government's official web portal to all federal, state and local government web resources and services.